Kezdőlap
METAR-TAF:

METAR-TAF

Repülőterek :

Maun, Botswana

földrajzi szélesség: 19-59S, földrajzi hosszúság: 023-25E, magasság: 945 m

Jelenlegi meteorológiai megfigyelések

A jelentés 23 perccel ezelõtt készült, 06:00 UTC
Kelet-északkeleti szél 3 kt
Hőmérséklet 16°C
Páratartalom 55%
Légköri nyomás 1022 hPa
Látótávolság 10 km, vagy több
felhőtlen 1500 m magasságban, és nincs gomolyfelhõ

METAR: FBMN 160600Z 06003KT CAVOK 16/07 Q1022

Idő: 08:23 (06:23 UTC)

Előrejelzés

A jelentés 6 órával és 23 perccel ezelõtt készült, 00:00 UTC
Az előrejelzés 16-én 03 óra UTC és 16-én 12 óra UTC között érvényes
Kelet-északkeleti szél 5 kt
Látótávolság 10 km, vagy több
felhőtlen 1500 m magasságban, és nincs gomolyfelhõ

TAF: FBMN 160000Z 1603/1612 07005KT CAVOK

Meteorológiai megfigyelések és előrejelzések több, mint 4000 repülőtéren (METAR és TAF jelentéseket).

A térképen piros és sárga pontok jelzik az elérhető meteorológiai állomásokat.

Mozgassa az egeret a pont fölött, hogy megjelenjen az állomás neve.

Azután kattintson az időjárási megfigyelések és előrejelzések megtekintéséhez.

A térkép megváltoztatása: kattintson a fekete keresztel jelölt zöld gombra ráközelítéshez, a vonallal jelölt zöld gombra távolításhoz, vagy a zöld nyilakra a szomszédos térképek eléréséhez.


METAR-TAF: